Oakwood, Georgia
Current Conditions -  °F | °C
As of 4:53 PM on Saturday 25 Oct 2014 (Local Time) from KGVL Reporting Station
Clear Clear  
Wind Chill: 74°   Ceiling: Unl
Heat Index: 74°   Visibility: 10mi
Dew Point: 42°   Wind: 8mph
Humidity: 32%   Direction: 230°SW
Pressure: 30.01"   Gusts: NA
Location:  34.23°N, 83.88°W
Report Text: KGVL 252053Z AUTO 23007KT 10SM CLR 23/06 A3001 RMK AO2 SLP152 T02330056 56015
Loading
Personal Weather Stations






























Interactive Weather Map
Tropical Storm Tracking
New forecast layout! Learn more

10-Day Weather Forecast

Advertisements
Track Severe Weather on mobile